Nearby METAR Reports

 

KTAN - Taunton, Massachusetts, USA
Distance from station: W 5mi, 8km
Updated: Fri, 20-May-2022 5:26am EDT
Mist, Clear
Mist, Clear
 Wind from calm
Wind: Calm
Temperature: 43°F , 6°C
Dew Point: 41°F , 5°C
Humidity: 93%
Barometer: 29.91 inHg , 1012.9 hPa
Summary: Mist
Clouds: Clear
Visibility: 4 miles , 6 km
2022/05/20 09:26 KTAN 200926Z AUTO 00000KT 4SM BR CLR 06/05 A2991 RMK AO2 T00560050
KPYM - Plymouth, Massachusetts, USA
Distance from station: ENE 10mi, 16km
Updated: Fri, 20-May-2022 5:32am EDT
Fog, Overcast
Fog, Overcast
 Wind from calm
Wind: Calm
Temperature: 46°F , 8°C
Dew Point: 46°F , 8°C
Humidity: 100%
Barometer: 29.91 inHg , 1012.9 hPa
Summary: Fog
Clouds: Overcast
Visibility: 1/4 mile , 0.4 km
Cloud details: Overcast 100 ft
2022/05/20 09:32 KPYM 200932Z AUTO 00000KT 1/4SM FG OVC001 08/08 A2991 RMK AO2 T00830078
 
KEWB - New Bedford, Massachusetts, USA
Distance from station: S 14mi, 23km
Updated: Fri, 20-May-2022 5:13am EDT
Fog, Overcast
Fog, Overcast
 Wind from calm
Wind: Calm
Temperature: 45°F , 7°C
Dew Point: 45°F , 7°C
Humidity: 100%
Barometer: 29.90 inHg , 1012.5 hPa
Summary: Fog
Clouds: Overcast
Visibility: 1/4 mile , 0.4 km
Cloud details: Overcast 100 ft
2022/05/20 09:13 KEWB 200913Z AUTO 00000KT 1/4SM R05/1600V3500FT FG VV001 07/07 A2990 RMK AO2 T00720072
KGHG - Marshfield, Massachusetts, USA
Distance from station: NE 20mi, 31km
Updated: Fri, 20-May-2022 5:15am EDT
Mostly cloudy
Mostly cloudy
 Wind from calm
Wind: Calm
Temperature: 50°F , 10°C
Dew Point: 50°F , 10°C
Humidity: 100%
Barometer: 29.90 inHg , 1012.5 hPa
Clouds: Mostly cloudy
Visibility: 10 miles , 16 km
Cloud details: Partly cloudy 500 ft
Mostly cloudy 1000 ft
2022/05/20 09:15 KGHG 200915Z AUTO 00000KT 10SM SCT005 BKN010 10/10 A2990 RMK AO2
 
KOWD - Norwood, Massachusetts, USA
Distance from station: NNW 24mi, 39km
Updated: Fri, 20-May-2022 5:33am EDT
Fog, Overcast
Fog, Overcast
 Wind from E
Wind: E 3 mph , 6 km/h
Temperature: 41°F , 5°C
Dew Point: 39°F , 4°C
Humidity: 93%
Barometer: 29.89 inHg , 1012.2 hPa
Summary: Fog
Clouds: Overcast
Visibility: 1/4 mile , 0.4 km
Cloud details: Overcast 100 ft
2022/05/20 09:33 KOWD 200933Z AUTO 09003KT 1/4SM FG VV001 05/04 A2989 RMK AO2 T00500039
KMQE - East Milton, Massachusetts, USA
Distance from station: NNW 25mi, 40km
Updated: Thu, 01-Jul-2021 9:51am EDT
NOT Current

 Wind from WNW
Wind: WNW 9 mph , 15 km/h
Temperature: 75°F , 24°C
Dew Point: 70°F , 21°C
Humidity: 83%
Barometer: 29.86 inHg , 1011.2 hPa
2021/07/01 13:51 KMQE 011351Z AUTO 30008KT 24/21 A2986 RMK AO1 SLP116 T02440206
 
KFMH - Falmouth/Otis Ab, Massachusetts, USA
Distance from station: SE 27mi, 44km
Updated: Fri, 20-May-2022 4:45am EDT
Fog, Overcast
Fog, Overcast
 Wind from W
Wind: W 7 mph , 11 km/h
Temperature: 50°F , 10°C
Wind Chill: 47°F , 8°C
Dew Point: 50°F , 10°C
Humidity: 100%
Barometer: 29.89 inHg , 1012.2 hPa
Summary: Fog
Clouds: Overcast
Visibility: 1/4 mile , 0.4 km
Cloud details: Overcast 200 ft
2022/05/20 08:45 KFMH 200845Z 28006KT 1/4SM FG OVC002 10/10 A2989
KPVD - Providence/Green, Rhode Island, USA
Distance from station: WSW 29mi, 47km
Updated: Fri, 20-May-2022 4:51am EDT
Clear
Clear
 Wind from SSW
Wind: SSW 6 mph , 9 km/h
Temperature: 52°F , 11°C
Dew Point: 48°F , 9°C
Humidity: 88%
Barometer: 29.88 inHg , 1011.9 hPa
Clouds: Clear
Visibility: 10 miles , 16 km
2022/05/20 08:51 KPVD 200851Z AUTO 21005KT 10SM CLR 11/09 A2988 RMK AO2 SLP119 T01060094 53015
 
KSFZ - Pawtucket, Rhode Island, USA
Distance from station: W 30mi, 48km
Updated: Fri, 20-May-2022 4:56am EDT
Clear
Clear
 Wind from NNW
Wind: NNW 6 mph , 9 km/h
Temperature: 52°F , 11°C
Dew Point: 48°F , 9°C
Humidity: 88%
Barometer: 29.88 inHg , 1011.9 hPa
Clouds: Clear
Visibility: 10 miles , 16 km
2022/05/20 08:56 KSFZ 200856Z AUTO 33005KT 10SM CLR 11/09 A2988 RMK AO2 SLP118 T01060094 53013 $
KUUU - Newport, Rhode Island, USA
Distance from station: SW 31mi, 50km
Updated: Fri, 20-May-2022 5:23am EDT
Fog, Clear
Fog, Clear
 Wind from calm
Wind: Calm
Temperature: 46°F , 8°C
Dew Point: 46°F , 8°C
Humidity: 100%
Barometer: 29.90 inHg , 1012.5 hPa
Summary: Fog
Clouds: Clear
Visibility: 1/4 mile , 0.4 km
2022/05/20 09:23 KUUU 200923Z AUTO 00000KT 1/4SM FG CLR 08/08 A2990 RMK AO2 T00830083 TSNO
 
KOQU - N. Kingston/Quon, Rhode Island, USA
Distance from station: SW 32mi, 52km
Updated: Thu, 19-May-2022 10:50pm EDT
NOT Current
Overcast
Overcast
 Wind from W
Wind: W 12 mph , 19 km/h
Temperature: 57°F , 14°C
Dew Point: 52°F , 11°C
Humidity: 82%
Barometer: 29.82 inHg , 1009.8 hPa
Clouds: Overcast
Visibility: 10 miles , 16 km
Cloud details: Partly cloudy 1500 ft
Overcast 2500 ft
2022/05/20 02:50 KOQU 200250Z 28010KT 10SM SCT015 OVC025 14/11 A2982 RMK LAST
KBOS - Boston, Massachusetts, USA
Distance from station: N 33mi, 54km
Updated: Fri, 20-May-2022 5:34am EDT
Mist, Overcast
Mist, Overcast
 Wind from N
Wind: N 6 mph , 9 km/h
Temperature: 54°F , 12°C
Dew Point: 54°F , 12°C
Humidity: 100%
Barometer: 29.91 inHg , 1012.9 hPa
Summary: Mist
Clouds: Overcast
Visibility: 2 1/2 miles , 4 km
Cloud details: Overcast 300 ft
2022/05/20 09:34 KBOS 200934Z 35005KT 2 1/2SM BR OVC003 12/12 A2991 RMK AO2 T01220117
 
KHYA - Hyannis, Massachusetts, USA
Distance from station: ESE 37mi, 59km
Updated: Fri, 20-May-2022 5:17am EDT
Fog, Overcast
Fog, Overcast
 Wind from WSW
Wind: WSW 6 mph , 9 km/h
Temperature: 52°F , 11°C
Dew Point: 52°F , 11°C
Humidity: 100%
Barometer: 29.90 inHg , 1012.5 hPa
Summary: Fog
Clouds: Overcast
Visibility: 1/4 mile , 0.4 km
Cloud details: Overcast 200 ft
2022/05/20 09:17 KHYA 200917Z AUTO 24005KT 1/4SM FG VV002 11/11 A2990 RMK AO2 T01110106
KMVY - Marthas Vineyard, Massachusetts, USA
Distance from station: SSE 37mi, 60km
Updated: Fri, 20-May-2022 5:31am EDT
Fog, Overcast
Fog, Overcast
 Wind from W
Wind: W 5 mph , 7 km/h
Temperature: 52°F , 11°C
Dew Point: 52°F , 11°C
Humidity: 100%
Barometer: 29.92 inHg , 1013.2 hPa
Summary: Fog
Clouds: Overcast
Visibility: 1/4 mile , 0.4 km
Cloud details: Overcast 200 ft
2022/05/20 09:31 KMVY 200931Z AUTO 26004KT 1/4SM R24/1800V2200FT FG VV002 11/11 A2992 RMK AO2 T01110111
 
KPVC - Provincetown, Massachusetts, USA
Distance from station: ENE 38mi, 61km
Updated: Fri, 20-May-2022 5:25am EDT
Overcast
Overcast
 Wind from N
Wind: N 3 mph , 6 km/h
Temperature: 54°F , 12°C
Dew Point: 52°F , 11°C
Humidity: 94%
Barometer: 29.92 inHg , 1013.2 hPa
Clouds: Overcast
Visibility: 10 miles , 16 km
Cloud details: Overcast 500 ft
2022/05/20 09:25 KPVC 200925Z AUTO 36003KT 10SM OVC005 12/11 A2992 RMK AO2 CIG 004V008
KBED - Bedford, Massachusetts, USA
Distance from station: NNW 44mi, 72km
Updated: Fri, 20-May-2022 5:31am EDT
Fog, Overcast
Fog, Overcast
 Wind from E
Wind: E 3 mph , 6 km/h
Temperature: 50°F , 10°C
Dew Point: 50°F , 10°C
Humidity: 100%
Barometer: 29.88 inHg , 1011.9 hPa
Summary: Fog
Clouds: Overcast
Visibility: less than 1/4 mile , 0.4 km
Cloud details: Overcast 200 ft
2022/05/20 09:31 KBED 200931Z AUTO 09003KT M1/4SM R11/1000V1400FT FG VV002 10/10 A2988 RMK AO2 T01000100
 
KBVY - Beverly, Massachusetts, USA
Distance from station: 0 48mi, 77km
Updated: Fri, 20-May-2022 4:53am EDT
Mist, Overcast
Mist, Overcast
 Wind from NE
Wind: NE 5 mph , 7 km/h
Temperature: 54°F , 12°C
Dew Point: 52°F , 11°C
Humidity: 94%
Barometer: 29.88 inHg , 1011.9 hPa
Summary: Mist
Clouds: Overcast
Visibility: 1 mile , 2 km
Cloud details: Overcast 200 ft
2022/05/20 08:53 KBVY 200853Z AUTO 04004KT 1SM BR OVC002 12/11 A2988 RMK AO2 SLP113 T01170111 53021 TSNO
KCQX - Chatham, Massachusetts, USA
Distance from station: ESE 49mi, 80km
Updated: Fri, 20-May-2022 5:25am EDT
Mostly cloudy
Mostly cloudy
 Wind from calm
Wind: Calm
Temperature: 54°F , 12°C
Dew Point: 50°F , 10°C
Humidity: 88%
Barometer: 29.92 inHg , 1013.2 hPa
Clouds: Mostly cloudy
Visibility: 10 miles , 16 km
Cloud details: Mostly cloudy 1400 ft
2022/05/20 09:25 KCQX 200925Z AUTO 00000KT 10SM BKN014 12/10 A2992 RMK AO2 T01170100